• Join FlightAware (Why Join?)
  • Login
  • US Flag 
09:57AM EDT


 

Airport Tracker/Info


-or-


 

Live Flight TrackerFlight Track Log ✈ N34AG ✈ 12-May-2013 ✈ KBNA - KUGN

Flight Track Log - Related Links

Times and Time Zones

All times are in EDT time to prevent confusion due to time zone crossing. See the N34AG flight status page for this flight to view local times or setup timezone preferences in your user account.

Time Position Orientation Groundspeed Altitude Reporting Facility
EDT Latitude Longitude Course Direction KTS MPH feet Rate Location/Type
02:14PM 36.1333 -86.6833 39° Northeast 127 146 1,000  Level Nashville TRACON
02:14PM 36.1500 -86.6667 39° Northeast 119 137 2,100 960 Climbing Nashville TRACON
02:15PM 36.1833 -86.6667 360° North 127 146 2,600 720 Climbing Nashville TRACON
02:16PM 36.2167 -86.6833 338° Northwest 119 137 3,400 660 Climbing Nashville TRACON
02:17PM 36.2500 -86.6833 360° North 126 145 4,000 540 Climbing Nashville TRACON
02:18PM 36.3000 -86.6833 360° North 166 191 4,500 600 Climbing Nashville TRACON
02:19PM 36.3333 -86.7000 338° Northwest 140 161 5,300 660 Climbing Nashville TRACON
02:20PM 36.3667 -86.7000 360° North 129 148 6,000 780 Climbing Nashville TRACON
02:21PM 36.4000 -86.7000 360° North 125 144 7,000 900 Climbing Nashville TRACON
02:22PM 36.4333 -86.7000 360° North 108 124 7,900 780 Climbing Nashville TRACON
02:23PM 36.4500 -86.7000 360° North 106 122 8,400 780 Climbing Nashville TRACON
02:24PM 36.5000 -86.7000 360° North 113 130 9,400 780 Climbing Nashville TRACON
02:25PM 36.5197 -86.7111 336° Northwest 116 133 9,900 720 Climbing Memphis Center
02:26PM 36.5511 -86.7147 355° North 128 147 10,600 660 Climbing Memphis Center
02:27PM 36.5867 -86.7158 359° North 128 147 11,300 600 Climbing Memphis Center
02:28PM 36.6200 -86.7194 355° North 117 135 11,900 300 Climbing Memphis Center
02:29PM 36.6597 -86.7253 353° North 132 152 11,900  Level Memphis Center
02:30PM 36.7061 -86.7361 349° North 150 173 12,000  Climbing Memphis Center
02:31PM 36.7522 -86.7444 352° North 162 186 12,000  Level Memphis Center
02:32PM 36.8003 -86.7528 352° North 162 186 12,000  Level Memphis Center
02:33PM 36.8442 -86.7611 351° North 162 186 12,000  Level Memphis Center
02:34PM 36.8861 -86.7697 351° North 162 186 12,000  Level Memphis Center
02:35PM 36.9322 -86.7806 349° North 162 186 12,000  Level Memphis Center
02:36PM 36.9806 -86.7861 355° North 162 186 12,000  Level Memphis Center
02:37PM 37.0308 -86.7969 350° North 162 186 12,000  Level Memphis Center
02:38PM 37.0769 -86.8053 352° North 162 186 12,000  Level Memphis Center
02:39PM 37.1208 -86.8136 351° North 162 186 12,000  Level Memphis Center
02:40PM 37.2022 -86.8269 353° North 171 197 12,000  Level Indianapolis Center
02:41PM 37.2497 -86.8356 352° North 170 196 12,000  Level Indianapolis Center
02:43PM 37.2964 -86.8442 352° North 169 194 12,100  Climbing Indianapolis Center
02:44PM 37.3444 -86.8528 352° North 172 198 12,100  Level Indianapolis Center
02:45PM 37.3908 -86.8611 352° North 168 193 12,100  Level Indianapolis Center
02:46PM 37.4400 -86.8708 351° North 174 200 12,100  Level Indianapolis Center
02:47PM 37.4878 -86.8794 352° North 173 199 12,100  Level Indianapolis Center
02:48PM 37.5356 -86.8894 351° North 174 200 12,100  Level Indianapolis Center
02:49PM 37.5842 -86.8983 352° North 174 200 12,100  Level Indianapolis Center
02:50PM 37.6322 -86.9078 351° North 175 201 12,100  Level Indianapolis Center
02:51PM 37.6917 -86.9183 352° North 179 206 12,100  Level Indianapolis Center
02:52PM 37.7400 -86.9278 351° North 176 203 12,100  Level Indianapolis Center
02:53PM 37.7886 -86.9369 352° North 174 200 12,100  Level Indianapolis Center
02:54PM 37.8375 -86.9456 352° North 177 204 12,100  Level Indianapolis Center
02:55PM 37.8864 -86.9556 351° North 177 204 12,100  Level Indianapolis Center
02:56PM 37.9344 -86.9644 352° North 175 201 12,100  Level Indianapolis Center
02:57PM 37.9833 -86.9736 352° North 176 203 12,100  Level Indianapolis Center
02:58PM 38.0317 -86.9822 352° North 175 201 12,100  Level Indianapolis Center
02:59PM 38.0800 -86.9919 351° North 175 201 12,100  Level Indianapolis Center
03:00PM 38.1372 -87.0028 352° North 174 200 12,100  Level Indianapolis Center
03:01PM 38.1847 -87.0119 351° North 172 198 12,100 -60 Level Indianapolis Center
03:02PM 38.2331 -87.0214 351° North 174 200 12,000 -60 Descending Indianapolis Center
03:03PM 38.2811 -87.0308 351° North 175 201 12,000  Level Indianapolis Center
03:04PM 38.3317 -87.0383 353° North 172 198 12,000  Level Indianapolis Center
03:05PM 38.3822 -87.0497 350° North 171 197 12,000  Level Indianapolis Center
03:06PM 38.4297 -87.0586 352° North 172 198 12,000  Level Indianapolis Center
03:07PM 38.4769 -87.0681 351° North 171 197 12,000  Level Indianapolis Center
03:08PM 38.5247 -87.0769 352° North 173 199 12,000  Level Indianapolis Center
03:09PM 38.5717 -87.0864 351° North 170 196 12,000  Level Indianapolis Center
03:10PM 38.6186 -87.0958 351° North 170 196 12,000  Level Indianapolis Center
03:11PM 38.6664 -87.1044 352° North 172 198 12,000  Level Indianapolis Center
03:12PM 38.7133 -87.1131 352° North 170 196 12,000  Level Indianapolis Center
03:13PM 38.7700 -87.1250 351° North 171 197 12,000  Level Indianapolis Center
03:14PM 38.8178 -87.1336 352° North 172 198 12,000  Level Indianapolis Center
03:15PM 38.8647 -87.1433 351° North 171 197 12,000  Level Indianapolis Center
03:16PM 38.9119 -87.1519 352° North 170 196 12,000  Level Indianapolis Center
03:18PM 38.9592 -87.1617 351° North 170 196 12,000  Level Indianapolis Center
03:19PM 39.0069 -87.1708 352° North 172 198 12,000  Level Indianapolis Center
03:20PM 39.0564 -87.1794 352° North 176 203 12,000  Level Indianapolis Center
03:21PM 39.1144 -87.1914 351° North 177 204 12,000  Level Indianapolis Center
03:22PM 39.1550 -87.1989 352° North 176 203 12,000  Level Indianapolis Center
03:23PM 39.2128 -87.2103 351° North 175 201 12,000  Level Indianapolis Center
03:24PM 39.2603 -87.2200 351° North 174 200 12,000  Level Indianapolis Center
03:25PM 39.3086 -87.2297 351° North 175 201 12,000  Level Indianapolis Center
03:26PM 39.3561 -87.2386 352° North 174 200 12,000  Level Indianapolis Center
03:27PM 39.4050 -87.2486 351° North 176 203 12,000  Level Indianapolis Center
03:28PM 39.4522 -87.2572 352° North 174 200 12,000  Level Indianapolis Center
03:29PM 39.5092 -87.2694 351° North 173 199 12,000  Level Indianapolis Center
03:30PM 39.5558 -87.2783 352° North 171 197 12,000  Level Indianapolis Center
03:31PM 39.6031 -87.2881 351° North 172 198 12,000  Level Indianapolis Center
03:32PM 39.6503 -87.2986 350° North 172 198 12,000  Level Indianapolis Center
03:33PM 39.6981 -87.3061 353° North 173 199 12,000  Level Indianapolis Center
03:34PM 39.7447 -87.3153 351° North 170 196 12,000  Level Indianapolis Center
03:35PM 39.8019 -87.3261 352° North 172 198 12,000  Level Indianapolis Center
03:36PM 39.8489 -87.3372 350° North 172 198 12,000  Level Indianapolis Center
03:37PM 39.8950 -87.3464 351° North 170 196 12,000  Level Indianapolis Center
03:38PM 39.9417 -87.3564 351° North 170 196 12,000  Level Indianapolis Center
03:39PM 39.9903 -87.3656 352° North 173 199 12,000  Level Indianapolis Center
03:40PM 40.0372 -87.3753 351° North 173 199 12,000  Level Indianapolis Center
03:41PM 40.0947 -87.3853 352° North 174 200 12,000  Level Indianapolis Center
03:42PM 40.1419 -87.3944 352° North 173 199 12,000  Level Indianapolis Center
03:43PM 40.1608 -87.3986 350° North 172 198 12,000  Level Chicago Center
03:44PM 40.2078 -87.4094 350° North 172 198 12,000  Level Chicago Center
03:45PM 40.2653 -87.4028 North 179 206 12,000  Level Chicago Center
03:46PM 40.3144 -87.3853 15° North 183 211 12,000  Level Chicago Center
03:47PM 40.3631 -87.3675 16° North 182 209 12,000  Level Chicago Center
03:48PM 40.4117 -87.3472 18° North 183 211 12,000  Level Chicago Center
03:49PM 40.4586 -87.3311 15° North 182 209 12,000  Level Chicago Center
03:50PM 40.5189 -87.3325 359° North 182 209 12,000 -120 Level Chicago Center
03:51PM 40.5661 -87.3294 North 174 200 11,800 -480 Descending Chicago Center
03:52PM 40.6206 -87.3269 North 192 221 11,100 -420 Descending Chicago Center
03:53PM 40.6728 -87.3250 North 191 220 11,000 -60 Descending Chicago Center
03:54PM 40.7219 -87.3228 North 180 207 11,000  Level Chicago Center
03:55PM 40.7797 -87.3194 North 174 200 11,000 -60 Level Chicago Center
03:56PM 40.8275 -87.3164 North 174 200 10,900 -360 Descending Chicago Center
03:57PM 40.8792 -87.3131 North 184 212 10,300 -480 Descending Chicago Center
03:58PM 40.9314 -87.3103 North 189 217 10,000 -180 Descending Chicago Center
03:59PM 40.9797 -87.3092 North 176 203 10,000  Level Chicago Center
04:00PM 41.0372 -87.3058 North 174 200 10,000 -240 Level Chicago Center
04:01PM 41.0828 -87.3042 North 170 196 9,600 -840 Descending Chicago Center
04:02PM 41.1383 -87.2986 North 192 221 8,300 -1,200 Descending Chicago Center
04:03PM 41.1936 -87.2956 North 196 226 7,200 -1,080 Descending Chicago Center
04:04PM 41.2483 -87.2931 North 198 228 6,100 -1,200 Descending Chicago Center
04:06PM 41.3108 -87.2867 North 194 223 4,800 -1,020 Descending Chicago Center
04:07PM 41.3606 -87.2797 North 189 217 4,100 -540 Descending Chicago Center
04:07PM 41.3833 -87.2833 353° North 170 196 4,000  Descending Chicago TRACON
04:08PM 41.4333 -87.2833 360° North 165 190 4,100  Climbing Chicago TRACON
04:09PM 41.4833 -87.2833 360° North 167 192 4,000 -60 Descending Chicago TRACON
04:10PM 41.5167 -87.2667 21° North 168 193 4,000 -180 Level Chicago TRACON
04:11PM 41.5667 -87.2833 346° North 167 192 3,700 -420 Descending Chicago TRACON
04:12PM 41.6167 -87.3000 346° North 182 209 3,200 -480 Descending Chicago TRACON
04:13PM 41.6439 -87.3200 331° Northwest 174 200 2,900 -180 Descending Chicago Center
04:14PM 41.6878 -87.3472 335° Northwest 176 203 2,900  Level Chicago Center
04:15PM 41.7283 -87.3750 333° Northwest 172 198 2,900  Level Chicago Center
04:16PM 41.7794 -87.3994 340° North 167 192 2,900  Level Chicago Center
04:17PM 41.8236 -87.4181 343° North 167 192 2,900  Level Chicago Center
04:18PM 41.8664 -87.4394 340° North 166 191 2,900  Level Chicago Center
04:19PM 41.9083 -87.4614 339° North 164 189 2,900  Level Chicago Center
04:20PM 41.9517 -87.4800 342° North 165 190 2,900  Level Chicago Center
04:21PM 42.0022 -87.5058 339° North 163 188 2,900  Level Chicago Center
04:22PM 42.0442 -87.5286 338° Northwest 163 188 2,900  Level Chicago Center
04:23PM 42.0833 -87.5667 324° Northwest 162 186 2,900  Level Chicago TRACON
04:24PM 42.1167 -87.6000 323° Northwest 163 188 2,900  Level Chicago TRACON
04:25PM 42.1500 -87.6333 323° Northwest 159 183 2,900  Level Chicago TRACON
04:26PM 42.2000 -87.6500 346° North 151 174 2,900  Level Chicago TRACON
04:27PM 42.2333 -87.6833 323° Northwest 149 171 2,900  Level Chicago TRACON
04:28PM 42.2667 -87.7167 324° Northwest 148 170 2,900 -360 Level Chicago TRACON
04:29PM 42.3000 -87.7333 340° North 162 186 2,200 -540 Descending Chicago TRACON
04:30PM 42.3500 -87.7667 334° Northwest 155 178 1,900 -120 Descending Chicago TRACON
04:31PM 42.3833 -87.7833 340° North 143 165 2,000 -120 Climbing Chicago TRACON
04:32PM 42.4167 -87.8000 340° North 142 163 1,700 -420 Descending Chicago TRACON
04:33PM 42.4333 -87.8333 304° West 140 161 1,200 -540 Descending Chicago TRACON
04:35PM 42.4167 -87.8667 North  Level FlightAware Approximate